sensor_id;sensor_type;location;lat;lon;timestamp;temperature;humidity
8188;DHT22;4135;49.184;9.722;2023-04-20T14:29:19;21.30;42.50
8188;DHT22;4135;49.184;9.722;2023-04-20T14:31:49;20.70;42.30
8188;DHT22;4135;49.184;9.722;2023-04-20T14:34:19;20.70;42.20
8188;DHT22;4135;49.184;9.722;2023-04-20T14:36:49;20.80;42.20
8188;DHT22;4135;49.184;9.722;2023-04-20T14:39:19;20.80;42.10
8188;DHT22;4135;49.184;9.722;2023-04-20T14:41:54;20.80;42.00
8188;DHT22;4135;49.184;9.722;2023-04-20T14:44:24;20.80;42.00
8188;DHT22;4135;49.184;9.722;2023-04-20T14:46:54;20.90;42.00
8188;DHT22;4135;49.184;9.722;2023-04-20T14:49:25;20.90;42.00
8188;DHT22;4135;49.184;9.722;2023-04-20T14:51:54;21.00;42.00
8188;DHT22;4135;49.184;9.722;2023-04-20T14:54:24;21.00;42.00
8188;DHT22;4135;49.184;9.722;2023-04-20T14:56:53;21.00;42.00
8188;DHT22;4135;49.184;9.722;2023-04-20T14:59:23;21.00;42.00
8188;DHT22;4135;49.184;9.722;2023-04-20T15:01:55;21.00;42.00
8188;DHT22;4135;49.184;9.722;2023-04-20T15:04:24;21.00;42.00
8188;DHT22;4135;49.184;9.722;2023-04-20T15:06:54;21.00;42.00
8188;DHT22;4135;49.184;9.722;2023-04-20T15:09:24;21.00;42.10
8188;DHT22;4135;49.184;9.722;2023-04-20T15:11:53;21.10;42.20
8188;DHT22;4135;49.184;9.722;2023-04-20T15:14:23;21.10;42.20
8188;DHT22;4135;49.184;9.722;2023-04-20T15:16:53;21.10;42.20
8188;DHT22;4135;49.184;9.722;2023-04-20T15:19:22;21.10;42.20
8188;DHT22;4135;49.184;9.722;2023-04-20T15:21:52;21.10;42.20
8188;DHT22;4135;49.184;9.722;2023-04-20T15:24:21;21.10;42.20
8188;DHT22;4135;49.184;9.722;2023-04-20T15:26:51;21.10;42.30
8188;DHT22;4135;49.184;9.722;2023-04-20T15:29:20;21.10;42.30
8188;DHT22;4135;49.184;9.722;2023-04-20T15:31:50;21.10;42.40
8188;DHT22;4135;49.184;9.722;2023-04-20T15:34:19;21.10;42.40
8188;DHT22;4135;49.184;9.722;2023-04-20T15:36:49;21.10;42.40
8188;DHT22;4135;49.184;9.722;2023-04-20T15:39:19;21.10;42.50
8188;DHT22;4135;49.184;9.722;2023-04-20T15:41:48;21.10;42.40
8188;DHT22;4135;49.184;9.722;2023-04-20T15:44:18;21.10;42.50
8188;DHT22;4135;49.184;9.722;2023-04-20T15:46:47;21.10;42.50
8188;DHT22;4135;49.184;9.722;2023-04-20T15:49:17;21.10;42.50
8188;DHT22;4135;49.184;9.722;2023-04-20T15:51:48;21.10;42.60
8188;DHT22;4135;49.184;9.722;2023-04-20T15:54:18;21.20;42.80
8188;DHT22;4135;49.184;9.722;2023-04-20T15:56:51;21.10;42.80
8188;DHT22;4135;49.184;9.722;2023-04-20T15:59:21;21.10;42.80
8188;DHT22;4135;49.184;9.722;2023-04-20T16:01:51;21.20;43.00
8188;DHT22;4135;49.184;9.722;2023-04-20T16:04:21;21.20;43.00
8188;DHT22;4135;49.184;9.722;2023-04-20T16:06:51;21.20;43.10
8188;DHT22;4135;49.184;9.722;2023-04-20T16:09:20;21.20;43.20
8188;DHT22;4135;49.184;9.722;2023-04-20T16:11:50;21.20;43.20
8188;DHT22;4135;49.184;9.722;2023-04-20T16:14:19;21.20;43.80
8188;DHT22;4135;49.184;9.722;2023-04-20T16:16:49;21.20;43.20
8188;DHT22;4135;49.184;9.722;2023-04-20T16:19:19;21.20;43.30
8188;DHT22;4135;49.184;9.722;2023-04-20T16:21:48;21.20;43.30
8188;DHT22;4135;49.184;9.722;2023-04-20T16:24:18;21.20;43.40
8188;DHT22;4135;49.184;9.722;2023-04-20T16:26:47;21.20;43.40
8188;DHT22;4135;49.184;9.722;2023-04-20T16:29:17;21.20;43.40
8188;DHT22;4135;49.184;9.722;2023-04-20T16:31:46;21.20;43.40
8188;DHT22;4135;49.184;9.722;2023-04-20T16:34:16;21.20;43.60
8188;DHT22;4135;49.184;9.722;2023-04-20T16:36:45;21.20;43.50
8188;DHT22;4135;49.184;9.722;2023-04-20T16:39:16;21.30;44.20
8188;DHT22;4135;49.184;9.722;2023-04-20T16:41:46;21.30;43.60
8188;DHT22;4135;49.184;9.722;2023-04-20T16:44:15;21.20;43.50
8188;DHT22;4135;49.184;9.722;2023-04-20T16:46:50;21.30;43.60
8188;DHT22;4135;49.184;9.722;2023-04-20T16:49:19;21.30;43.60
8188;DHT22;4135;49.184;9.722;2023-04-20T16:51:49;21.30;43.70
8188;DHT22;4135;49.184;9.722;2023-04-20T16:54:19;21.20;43.60
8188;DHT22;4135;49.184;9.722;2023-04-20T16:56:49;21.30;43.70
8188;DHT22;4135;49.184;9.722;2023-04-20T16:59:19;21.30;43.60
8188;DHT22;4135;49.184;9.722;2023-04-20T17:01:49;21.30;43.60
8188;DHT22;4135;49.184;9.722;2023-04-20T17:04:18;21.30;43.60
8188;DHT22;4135;49.184;9.722;2023-04-20T17:06:48;21.40;43.70
8188;DHT22;4135;49.184;9.722;2023-04-20T17:09:17;21.40;43.60
8188;DHT22;4135;49.184;9.722;2023-04-20T17:11:47;21.50;43.70
8188;DHT22;4135;49.184;9.722;2023-04-20T17:14:16;21.50;43.70
8188;DHT22;4135;49.184;9.722;2023-04-20T17:16:46;21.50;43.70
8188;DHT22;4135;49.184;9.722;2023-04-20T17:19:15;21.50;43.80
8188;DHT22;4135;49.184;9.722;2023-04-20T17:21:46;21.60;43.90
8188;DHT22;4135;49.184;9.722;2023-04-20T17:24:15;21.50;44.50
8188;DHT22;4135;49.184;9.722;2023-04-20T17:26:45;21.60;44.00
8188;DHT22;4135;49.184;9.722;2023-04-20T17:29:15;21.60;44.00
8188;DHT22;4135;49.184;9.722;2023-04-20T17:31:44;21.60;44.00
8188;DHT22;4135;49.184;9.722;2023-04-20T17:34:15;21.60;44.10
8188;DHT22;4135;49.184;9.722;2023-04-20T17:36:44;21.60;44.10
8188;DHT22;4135;49.184;9.722;2023-04-20T17:39:15;21.60;44.10
8188;DHT22;4135;49.184;9.722;2023-04-20T17:41:44;21.50;44.10
8188;DHT22;4135;49.184;9.722;2023-04-20T17:44:14;21.50;44.10
8188;DHT22;4135;49.184;9.722;2023-04-20T17:46:43;21.50;44.20
8188;DHT22;4135;49.184;9.722;2023-04-20T17:49:13;21.50;44.30
8188;DHT22;4135;49.184;9.722;2023-04-20T17:51:42;21.50;44.30
8188;DHT22;4135;49.184;9.722;2023-04-20T17:54:14;21.50;44.30
8188;DHT22;4135;49.184;9.722;2023-04-20T17:56:43;21.50;44.40
8188;DHT22;4135;49.184;9.722;2023-04-20T17:59:13;21.60;44.60
8188;DHT22;4135;49.184;9.722;2023-04-20T18:01:42;21.50;44.50
8188;DHT22;4135;49.184;9.722;2023-04-20T18:04:12;21.50;44.50
8188;DHT22;4135;49.184;9.722;2023-04-20T18:06:41;21.60;44.60
8188;DHT22;4135;49.184;9.722;2023-04-20T18:09:11;21.60;44.70
8188;DHT22;4135;49.184;9.722;2023-04-20T18:11:42;21.60;44.70
8188;DHT22;4135;49.184;9.722;2023-04-20T18:14:12;21.60;44.80
8188;DHT22;4135;49.184;9.722;2023-04-20T18:16:41;21.60;44.80
8188;DHT22;4135;49.184;9.722;2023-04-20T18:19:11;21.60;44.80
8188;DHT22;4135;49.184;9.722;2023-04-20T18:21:40;21.60;44.80
8188;DHT22;4135;49.184;9.722;2023-04-20T18:24:10;21.60;44.80
8188;DHT22;4135;49.184;9.722;2023-04-20T18:26:39;21.60;44.80
8188;DHT22;4135;49.184;9.722;2023-04-20T18:29:09;21.60;44.90
8188;DHT22;4135;49.184;9.722;2023-04-20T18:31:39;21.70;45.00
8188;DHT22;4135;49.184;9.722;2023-04-20T18:34:08;21.60;44.90
8188;DHT22;4135;49.184;9.722;2023-04-20T18:36:39;21.60;44.90
8188;DHT22;4135;49.184;9.722;2023-04-20T18:39:09;21.60;45.00
8188;DHT22;4135;49.184;9.722;2023-04-20T18:41:39;21.70;45.00
8188;DHT22;4135;49.184;9.722;2023-04-20T18:44:08;21.70;45.00
8188;DHT22;4135;49.184;9.722;2023-04-20T18:46:38;21.80;45.00
8188;DHT22;4135;49.184;9.722;2023-04-20T18:49:08;21.80;45.00
8188;DHT22;4135;49.184;9.722;2023-04-20T18:51:38;21.80;45.00
8188;DHT22;4135;49.184;9.722;2023-04-20T18:54:07;21.80;45.60
8188;DHT22;4135;49.184;9.722;2023-04-20T18:56:37;21.90;45.00
8188;DHT22;4135;49.184;9.722;2023-04-20T18:59:07;21.90;45.10
8188;DHT22;4135;49.184;9.722;2023-04-20T19:01:38;21.90;45.10
8188;DHT22;4135;49.184;9.722;2023-04-20T19:04:08;22.00;45.20
8188;DHT22;4135;49.184;9.722;2023-04-20T19:06:38;22.00;45.20
8188;DHT22;4135;49.184;9.722;2023-04-20T19:09:08;21.90;45.10
8188;DHT22;4135;49.184;9.722;2023-04-20T19:11:37;21.90;45.10
8188;DHT22;4135;49.184;9.722;2023-04-20T19:14:07;21.90;45.10
8188;DHT22;4135;49.184;9.722;2023-04-20T19:16:36;22.00;45.20
8188;DHT22;4135;49.184;9.722;2023-04-20T19:19:06;22.00;45.20
8188;DHT22;4135;49.184;9.722;2023-04-20T19:21:36;22.00;45.20
8188;DHT22;4135;49.184;9.722;2023-04-20T19:24:05;22.00;45.20
8188;DHT22;4135;49.184;9.722;2023-04-20T19:26:35;22.00;45.20
8188;DHT22;4135;49.184;9.722;2023-04-20T19:29:05;22.00;45.20
8188;DHT22;4135;49.184;9.722;2023-04-20T19:31:34;22.10;45.30
8188;DHT22;4135;49.184;9.722;2023-04-20T19:34:08;22.10;45.30
8188;DHT22;4135;49.184;9.722;2023-04-20T19:36:39;22.00;45.30
8188;DHT22;4135;49.184;9.722;2023-04-20T19:39:08;22.00;45.20
8188;DHT22;4135;49.184;9.722;2023-04-20T19:41:38;22.10;45.40
8188;DHT22;4135;49.184;9.722;2023-04-20T19:44:08;22.10;45.40
8188;DHT22;4135;49.184;9.722;2023-04-20T19:46:39;22.10;45.40
8188;DHT22;4135;49.184;9.722;2023-04-20T19:49:09;22.10;45.40
8188;DHT22;4135;49.184;9.722;2023-04-20T19:51:38;22.10;45.40
8188;DHT22;4135;49.184;9.722;2023-04-20T19:54:08;22.10;45.40
8188;DHT22;4135;49.184;9.722;2023-04-20T19:56:37;22.10;45.40
8188;DHT22;4135;49.184;9.722;2023-04-20T19:59:07;22.10;45.50
8188;DHT22;4135;49.184;9.722;2023-04-20T20:01:36;22.10;45.40
8188;DHT22;4135;49.184;9.722;2023-04-20T20:04:06;22.10;45.40
8188;DHT22;4135;49.184;9.722;2023-04-20T20:06:35;22.00;45.40
8188;DHT22;4135;49.184;9.722;2023-04-20T20:09:05;22.00;45.50
8188;DHT22;4135;49.184;9.722;2023-04-20T20:11:34;22.00;45.50
8188;DHT22;4135;49.184;9.722;2023-04-20T20:14:04;22.00;45.50
8188;DHT22;4135;49.184;9.722;2023-04-20T20:16:33;22.00;46.10
8188;DHT22;4135;49.184;9.722;2023-04-20T20:19:04;22.70;46.10
8188;DHT22;4135;49.184;9.722;2023-04-20T20:21:34;22.00;45.50
8188;DHT22;4135;49.184;9.722;2023-04-20T20:24:03;22.00;45.60
8188;DHT22;4135;49.184;9.722;2023-04-20T20:26:33;22.00;45.60
8188;DHT22;4135;49.184;9.722;2023-04-20T20:29:03;22.00;45.60
8188;DHT22;4135;49.184;9.722;2023-04-20T20:31:32;22.00;45.60
8188;DHT22;4135;49.184;9.722;2023-04-20T20:34:02;22.20;45.80
8188;DHT22;4135;49.184;9.722;2023-04-20T20:36:31;21.90;45.50
8188;DHT22;4135;49.184;9.722;2023-04-20T20:39:01;21.90;45.60
8188;DHT22;4135;49.184;9.722;2023-04-20T20:41:33;21.90;45.60
8188;DHT22;4135;49.184;9.722;2023-04-20T20:44:02;21.90;45.60
8188;DHT22;4135;49.184;9.722;2023-04-20T20:46:32;21.90;45.60
8188;DHT22;4135;49.184;9.722;2023-04-20T20:49:02;21.90;45.60
8188;DHT22;4135;49.184;9.722;2023-04-20T20:51:31;21.90;45.70
8188;DHT22;4135;49.184;9.722;2023-04-20T20:54:01;21.90;45.80
8188;DHT22;4135;49.184;9.722;2023-04-20T20:56:30;21.90;45.80
8188;DHT22;4135;49.184;9.722;2023-04-20T20:59:00;21.90;45.80
8188;DHT22;4135;49.184;9.722;2023-04-20T21:01:30;21.90;45.80
8188;DHT22;4135;49.184;9.722;2023-04-20T21:03:59;21.80;45.60
8188;DHT22;4135;49.184;9.722;2023-04-20T21:06:29;21.80;45.60
8188;DHT22;4135;49.184;9.722;2023-04-20T21:08:59;21.80;45.60
8188;DHT22;4135;49.184;9.722;2023-04-20T21:11:29;21.80;45.60
8188;DHT22;4135;49.184;9.722;2023-04-20T21:13:58;21.80;45.50
8188;DHT22;4135;49.184;9.722;2023-04-20T21:16:30;21.80;45.60
8188;DHT22;4135;49.184;9.722;2023-04-20T21:19:00;21.80;45.60
8188;DHT22;4135;49.184;9.722;2023-04-20T21:21:30;21.80;45.50
8188;DHT22;4135;49.184;9.722;2023-04-20T21:24:01;21.70;45.50
8188;DHT22;4135;49.184;9.722;2023-04-20T21:26:30;21.70;46.00
8188;DHT22;4135;49.184;9.722;2023-04-20T21:29:04;21.70;45.30
8188;DHT22;4135;49.184;9.722;2023-04-20T21:31:34;21.70;45.30
8188;DHT22;4135;49.184;9.722;2023-04-20T21:34:03;21.70;45.30
8188;DHT22;4135;49.184;9.722;2023-04-20T21:36:33;21.70;45.30
8188;DHT22;4135;49.184;9.722;2023-04-20T21:39:02;21.70;45.80
8188;DHT22;4135;49.184;9.722;2023-04-20T21:41:32;21.70;45.20
8188;DHT22;4135;49.184;9.722;2023-04-20T21:44:01;21.70;45.20
8188;DHT22;4135;49.184;9.722;2023-04-20T21:46:31;21.70;45.20
8188;DHT22;4135;49.184;9.722;2023-04-20T21:49:01;21.60;45.10
8188;DHT22;4135;49.184;9.722;2023-04-20T21:51:30;21.60;45.10
8188;DHT22;4135;49.184;9.722;2023-04-20T21:54:01;21.70;45.20
8188;DHT22;4135;49.184;9.722;2023-04-20T21:56:30;21.70;45.20
8188;DHT22;4135;49.184;9.722;2023-04-20T21:59:00;21.60;45.10
8188;DHT22;4135;49.184;9.722;2023-04-20T22:01:29;21.60;45.10
8188;DHT22;4135;49.184;9.722;2023-04-20T22:03:59;21.60;45.00
8188;DHT22;4135;49.184;9.722;2023-04-20T22:06:30;21.60;45.00
8188;DHT22;4135;49.184;9.722;2023-04-20T22:09:01;21.60;45.10
8188;DHT22;4135;49.184;9.722;2023-04-20T22:11:30;21.60;45.10
8188;DHT22;4135;49.184;9.722;2023-04-20T22:14:00;21.60;45.10
8188;DHT22;4135;49.184;9.722;2023-04-20T22:16:29;21.60;45.10
8188;DHT22;4135;49.184;9.722;2023-04-20T22:19:02;21.60;45.10
8188;DHT22;4135;49.184;9.722;2023-04-20T22:21:32;21.60;45.10
8188;DHT22;4135;49.184;9.722;2023-04-20T22:24:02;21.50;45.00
8188;DHT22;4135;49.184;9.722;2023-04-20T22:26:31;21.50;45.10
8188;DHT22;4135;49.184;9.722;2023-04-20T22:29:01;21.50;45.10
8188;DHT22;4135;49.184;9.722;2023-04-20T22:31:30;21.50;45.10
8188;DHT22;4135;49.184;9.722;2023-04-20T22:34:00;21.50;45.10
8188;DHT22;4135;49.184;9.722;2023-04-20T22:36:30;21.50;45.10
8188;DHT22;4135;49.184;9.722;2023-04-20T22:38:59;21.50;45.10
8188;DHT22;4135;49.184;9.722;2023-04-20T22:41:29;21.50;45.10
8188;DHT22;4135;49.184;9.722;2023-04-20T22:43:59;21.50;45.10
8188;DHT22;4135;49.184;9.722;2023-04-20T22:46:28;21.50;45.10
8188;DHT22;4135;49.184;9.722;2023-04-20T22:48:58;21.50;45.10
8188;DHT22;4135;49.184;9.722;2023-04-20T22:51:28;21.50;45.10
8188;DHT22;4135;49.184;9.722;2023-04-20T22:53:57;21.50;45.10
8188;DHT22;4135;49.184;9.722;2023-04-20T22:56:29;21.50;45.10
8188;DHT22;4135;49.184;9.722;2023-04-20T22:58:58;21.50;45.10
8188;DHT22;4135;49.184;9.722;2023-04-20T23:01:28;21.40;45.00
8188;DHT22;4135;49.184;9.722;2023-04-20T23:03:57;21.40;45.00
8188;DHT22;4135;49.184;9.722;2023-04-20T23:06:27;21.50;45.10
8188;DHT22;4135;49.184;9.722;2023-04-20T23:08:57;21.40;45.00
8188;DHT22;4135;49.184;9.722;2023-04-20T23:11:28;21.40;45.00
8188;DHT22;4135;49.184;9.722;2023-04-20T23:13:57;21.40;45.00
8188;DHT22;4135;49.184;9.722;2023-04-20T23:16:27;21.40;45.00
8188;DHT22;4135;49.184;9.722;2023-04-20T23:18:56;21.40;45.00
8188;DHT22;4135;49.184;9.722;2023-04-20T23:21:27;21.40;45.00
8188;DHT22;4135;49.184;9.722;2023-04-20T23:23:56;21.40;45.00
8188;DHT22;4135;49.184;9.722;2023-04-20T23:26:26;21.40;45.00
8188;DHT22;4135;49.184;9.722;2023-04-20T23:28:56;21.40;45.70
8188;DHT22;4135;49.184;9.722;2023-04-20T23:31:25;21.40;45.10
8188;DHT22;4135;49.184;9.722;2023-04-20T23:33:55;21.30;45.00
8188;DHT22;4135;49.184;9.722;2023-04-20T23:36:24;21.40;45.10
8188;DHT22;4135;49.184;9.722;2023-04-20T23:38:54;21.40;45.00
8188;DHT22;4135;49.184;9.722;2023-04-20T23:41:24;21.40;45.00
8188;DHT22;4135;49.184;9.722;2023-04-20T23:43:53;21.40;45.00
8188;DHT22;4135;49.184;9.722;2023-04-20T23:46:23;21.40;45.00
8188;DHT22;4135;49.184;9.722;2023-04-20T23:48:53;21.40;45.00
8188;DHT22;4135;49.184;9.722;2023-04-20T23:51:23;21.30;44.90
8188;DHT22;4135;49.184;9.722;2023-04-20T23:53:53;21.30;45.00
8188;DHT22;4135;49.184;9.722;2023-04-20T23:56:22;21.30;44.90
8188;DHT22;4135;49.184;9.722;2023-04-20T23:58:52;21.30;44.90
